Time;durP1;ratioP1;P1;durP2;ratioP2;P2;SDS_P1;SDS_P2;PMS_P1;PMS_P2;Temp;Humidity;BMP_temperature;BMP_pressure;BME280_temperature;BME280_humidity;BME280_pressure;Samples;Min_cycle;Max_cycle;Signal;HPM_P1;HPM_P2
2021/01/12 00:01:09;;;;;;;23.30;11.15;;;;;;;-0.85;72.60;99963.12;1790303;80;21054;-85
2021/01/12 00:03:37;;;;;;;22.25;11.05;;;;;;;-0.83;72.81;99962.36;1790536;80;20951;-81
2021/01/12 00:06:06;;;;;;;23.15;12.33;;;;;;;-0.81;72.83;99958.91;1790925;80;21663;-82
2021/01/12 00:08:33;;;;;;;23.10;11.90;;;;;;;-0.82;73.05;99960.78;1790605;80;21015;-82
2021/01/12 00:11:01;;;;;;;21.52;10.95;;;;;;;-0.83;73.24;99963.19;1790723;80;21494;-82
2021/01/12 00:13:30;;;;;;;28.95;14.38;;;;;;;-0.85;73.56;99966.64;1790478;80;20923;-82
2021/01/12 00:15:58;;;;;;;28.57;15.15;;;;;;;-0.86;73.67;99966.87;1790334;80;20931;-82
2021/01/12 00:18:25;;;;;;;25.65;13.45;;;;;;;-0.85;73.50;99970.68;1790214;80;22418;-83
2021/01/12 00:20:53;;;;;;;22.98;11.93;;;;;;;-0.83;73.40;99963.19;1790128;80;20999;-83
2021/01/12 00:23:20;;;;;;;26.57;12.37;;;;;;;-0.83;73.21;99957.80;1790164;80;21031;-83
2021/01/12 00:25:48;;;;;;;24.92;12.80;;;;;;;-0.84;73.04;99960.19;1790170;80;20939;-83
2021/01/12 00:28:15;;;;;;;21.62;11.63;;;;;;;-0.86;73.22;99959.60;1790177;78;21050;-83
2021/01/12 00:30:43;;;;;;;25.97;12.80;;;;;;;-0.87;73.42;99956.61;1791557;79;21636;-83
2021/01/12 00:33:10;;;;;;;20.80;10.98;;;;;;;-0.86;73.48;99956.09;1799124;79;20998;-83
2021/01/12 00:35:38;;;;;;;21.45;12.00;;;;;;;-0.85;73.54;99954.51;1772299;79;20955;-85
2021/01/12 00:38:06;;;;;;;27.55;12.45;;;;;;;-0.83;73.38;99952.92;1772455;79;20947;-85
2021/01/12 00:40:35;;;;;;;24.98;12.30;;;;;;;-0.82;73.83;99951.88;1799143;79;20923;-84
2021/01/12 00:43:02;;;;;;;25.85;13.38;;;;;;;-0.82;74.17;99950.53;1799156;79;21341;-85
2021/01/12 00:45:29;;;;;;;36.25;16.82;;;;;;;-0.83;74.28;99955.63;1799063;79;20986;-84
2021/01/12 00:47:58;;;;;;;32.78;15.63;;;;;;;-0.82;74.25;99955.92;1799211;79;20932;-83
2021/01/12 00:50:26;;;;;;;30.17;15.45;;;;;;;-0.82;74.31;99947.31;1799045;79;21589;-84
2021/01/12 00:52:53;;;;;;;30.10;14.63;;;;;;;-0.82;73.97;99944.61;1799150;79;20990;-85
2021/01/12 00:55:21;;;;;;;28.70;14.35;;;;;;;-0.82;73.87;99946.48;1799150;79;21376;-84
2021/01/12 00:57:48;;;;;;;25.72;13.40;;;;;;;-0.85;73.86;99947.77;1799105;79;21506;-85
2021/01/12 01:00:18;;;;;;;25.85;12.28;;;;;;;-0.85;73.95;99955.03;1799174;79;20943;-85
2021/01/12 01:02:46;;;;;;;26.93;13.40;;;;;;;-0.88;73.54;99953.63;1799082;79;20959;-86
2021/01/12 01:05:13;;;;;;;21.65;10.85;;;;;;;-0.88;73.45;99951.45;1799241;79;20927;-85
2021/01/12 01:07:41;;;;;;;23.65;11.57;;;;;;;-0.87;73.43;99946.36;1799212;79;22081;-85
2021/01/12 01:10:10;;;;;;;21.45;10.80;;;;;;;-0.87;73.47;99947.70;1799053;79;20976;-83
2021/01/12 01:12:37;;;;;;;23.40;11.70;;;;;;;-0.85;73.65;99957.73;1799194;79;21461;-86
2021/01/12 01:15:06;;;;;;;23.40;10.80;;;;;;;-0.85;73.68;99950.47;1799080;79;21077;-86
2021/01/12 01:17:36;;;;;;;22.48;11.53;;;;;;;-0.84;73.81;99954.80;1799101;79;21026;-86
2021/01/12 01:20:05;;;;;;;24.72;13.30;;;;;;;-0.86;74.13;99958.25;1799125;79;22482;-86
2021/01/12 01:22:33;;;;;;;27.13;13.15;;;;;;;-0.86;74.11;99955.56;1799038;79;21039;-86
2021/01/12 01:25:01;;;;;;;23.87;12.68;;;;;;;-0.84;74.05;99953.45;1799072;79;21561;-87
2021/01/12 01:27:33;;;;;;;26.50;14.47;;;;;;;-0.82;73.85;99950.00;1799042;78;20958;-87
2021/01/12 01:30:01;;;;;;;23.00;11.80;;;;;;;-0.81;74.01;99948.13;1773775;79;21014;-85
2021/01/12 01:32:30;;;;;;;28.07;12.75;;;;;;;-0.83;73.26;99948.36;1763929;79;21195;-84
2021/01/12 01:34:58;;;;;;;31.07;13.58;;;;;;;-0.87;73.21;99955.27;1753603;81;21076;-84
2021/01/12 01:37:28;;;;;;;30.23;14.98;;;;;;;-0.91;73.50;99948.69;1753566;81;20953;-86
2021/01/12 01:39:55;;;;;;;29.75;13.72;;;;;;;-0.95;73.58;99950.20;1726519;81;21071;-87
2021/01/12 01:42:22;;;;;;;28.10;13.95;;;;;;;-1.00;73.97;99944.16;1753619;80;21166;-87
2021/01/12 01:44:50;;;;;;;34.23;16.55;;;;;;;-1.03;74.51;99950.01;1753511;81;21140;-87
2021/01/12 01:47:17;;;;;;;36.17;17.65;;;;;;;-1.07;75.06;99946.13;1753470;81;21527;-86
2021/01/12 01:49:45;;;;;;;38.65;18.32;;;;;;;-1.09;75.41;99944.72;1753617;81;21478;-86
2021/01/12 01:52:12;;;;;;;34.80;16.42;;;;;;;-1.10;75.92;99947.94;1753472;80;20993;-84
2021/01/12 01:54:40;;;;;;;43.68;18.95;;;;;;;-1.10;76.50;99950.63;1753556;81;21035;-84
2021/01/12 01:57:09;;;;;;;40.28;18.32;;;;;;;-1.13;77.12;99947.58;1753539;80;21376;-85
2021/01/12 01:59:38;;;;;;;45.12;20.10;;;;;;;-1.13;77.67;99947.58;1753455;81;21519;-82
2021/01/12 02:02:06;;;;;;;44.90;21.57;;;;;;;-1.16;78.38;99939.98;1753498;81;20902;-82
2021/01/12 02:04:37;;;;;;;59.77;27.02;;;;;;;-1.18;79.65;99939.39;1753502;81;20954;-85
2021/01/12 02:07:05;;;;;;;55.83;26.40;;;;;;;-1.22;80.52;99936.85;1751120;81;21483;-84
2021/01/12 02:09:49;;;;;;;58.48;27.40;;;;;;;-1.25;81.12;99933.27;1753570;81;21270;-84
2021/01/12 02:12:27;;;;;;;58.42;27.02;;;;;;;-1.27;81.67;99930.80;1753570;81;21503;-86
2021/01/12 02:14:55;;;;;;;69.67;34.48;;;;;;;-1.26;82.20;99936.48;1752946;81;21480;-85
2021/01/12 02:17:26;;;;;;;68.60;31.87;;;;;;;-1.26;83.25;99932.97;1753575;81;21123;-83
2021/01/12 02:19:54;;;;;;;78.28;37.55;;;;;;;-1.27;83.42;99934.84;1754050;81;21001;-82
2021/01/12 02:22:22;;;;;;;77.62;37.33;;;;;;;-1.27;83.69;99925.95;1753676;80;21378;-82
2021/01/12 02:24:50;;;;;;;89.37;38.78;;;;;;;-1.27;84.18;99922.73;1753703;80;21207;-86
2021/01/12 02:27:23;;;;;;;84.70;35.28;;;;;;;-1.27;84.59;99925.42;1753694;80;21468;-87
2021/01/12 02:29:51;;;;;;;70.70;32.25;;;;;;;-1.28;85.08;99921.61;1753559;80;22005;-86
2021/01/12 02:32:19;;;;;;;72.40;32.90;;;;;;;-1.28;85.49;99922.95;1773594;79;21065;-83
2021/01/12 02:34:48;;;;;;;64.40;31.12;;;;;;;-1.29;85.75;99914.58;1766217;80;21342;-85
2021/01/12 02:37:16;;;;;;;63.30;30.43;;;;;;;-1.29;85.91;99917.27;1790265;80;21086;-84
2021/01/12 02:39:59;;;;;;;58.63;30.30;;;;;;;-1.29;86.30;99910.02;1790277;80;20987;-83
2021/01/12 02:42:28;;;;;;;50.78;26.30;;;;;;;-1.29;86.45;99910.53;1790229;80;21074;-83
2021/01/12 02:44:56;;;;;;;59.45;28.87;;;;;;;-1.30;86.61;99904.86;1790235;80;20980;-82
2021/01/12 02:47:24;;;;;;;65.85;28.65;;;;;;;-1.29;86.81;99907.84;1790325;80;22440;-82
2021/01/12 02:49:51;;;;;;;63.70;30.37;;;;;;;-1.30;87.12;99902.16;1790169;80;21014;-82
2021/01/12 02:52:19;;;;;;;57.70;29.52;;;;;;;-1.31;87.24;99895.95;1790218;80;20940;-81
2021/01/12 02:54:47;;;;;;;68.45;31.93;;;;;;;-1.32;87.45;99898.34;1790227;80;20932;-82
2021/01/12 02:57:14;;;;;;;56.55;28.00;;;;;;;-1.34;87.65;99897.23;1790206;80;21082;-82
2021/01/12 02:59:43;;;;;;;63.05;28.95;;;;;;;-1.36;88.04;99893.13;1790220;80;21042;-83
2021/01/12 03:02:10;;;;;;;57.25;28.52;;;;;;;-1.37;88.14;99895.00;1790331;80;21129;-84
2021/01/12 03:04:38;;;;;;;54.05;26.48;;;;;;;-1.39;88.40;99898.97;1790229;80;20939;-85
2021/01/12 03:07:05;;;;;;;56.18;28.62;;;;;;;-1.40;88.72;99900.02;1790177;80;20900;-81
2021/01/12 03:09:33;;;;;;;55.67;26.70;;;;;;;-1.43;88.86;99887.02;1789798;80;21560;-80
2021/01/12 03:12:01;;;;;;;66.77;30.85;;;;;;;-1.44;88.97;99888.88;1790127;80;21387;-79
2021/01/12 03:14:28;;;;;;;58.10;29.42;;;;;;;-1.42;89.04;99882.74;1790193;80;20960;-79
2021/01/12 03:16:55;;;;;;;65.37;31.42;;;;;;;-1.39;89.11;99882.81;1790195;80;20927;-82
2021/01/12 03:19:23;;;;;;;71.70;36.05;;;;;;;-1.37;89.25;99881.53;1790218;80;21116;-80
2021/01/12 03:21:50;;;;;;;83.85;42.25;;;;;;;-1.38;89.31;99880.41;1790225;80;21138;-80
2021/01/12 03:24:18;;;;;;;88.20;43.42;;;;;;;-1.40;89.41;99876.60;1790212;80;21375;-80
2021/01/12 03:26:46;;;;;;;86.05;39.88;;;;;;;-1.41;89.52;99872.27;1790093;80;21075;-81
2021/01/12 03:29:13;;;;;;;88.75;43.40;;;;;;;-1.40;89.81;99874.44;1785190;80;21104;-81
2021/01/12 03:31:40;;;;;;;86.32;41.70;;;;;;;-1.43;89.93;99872.20;1756864;80;21663;-79
2021/01/12 03:34:08;;;;;;;76.15;35.80;;;;;;;-1.47;90.25;99873.70;1783140;79;21131;-80
2021/01/12 03:36:35;;;;;;;59.48;28.02;;;;;;;-1.49;90.30;99867.20;1793389;80;22287;-80
2021/01/12 03:39:05;;;;;;;62.33;29.35;;;;;;;-1.49;90.49;99863.17;1793149;80;21017;-80
2021/01/12 03:41:33;;;;;;;65.50;28.25;;;;;;;-1.49;90.59;99863.17;1793361;80;20994;-80
2021/01/12 03:44:01;;;;;;;53.13;26.60;;;;;;;-1.49;90.71;99850.23;1797828;79;21595;-80
2021/01/12 03:46:28;;;;;;;62.98;28.00;;;;;;;-1.51;90.95;99850.45;1799960;79;21073;-79
2021/01/12 03:48:55;;;;;;;58.52;26.15;;;;;;;-1.51;91.04;99850.45;1798588;79;21805;-79
2021/01/12 03:51:24;;;;;;;52.90;26.42;;;;;;;-1.51;91.14;99845.08;1799372;79;21128;-80
2021/01/12 03:53:52;;;;;;;59.23;29.87;;;;;;;-1.51;91.33;99843.73;1799387;79;21655;-78
2021/01/12 03:56:20;;;;;;;55.60;28.00;;;;;;;-1.51;91.40;99838.34;1789942;79;21609;-79
2021/01/12 03:58:47;;;;;;;61.48;28.17;;;;;;;-1.52;91.46;99832.66;1799207;79;21129;-85
2021/01/12 04:01:15;;;;;;;55.52;26.35;;;;;;;-1.51;91.52;99830.79;1784376;79;21742;-80
2021/01/12 04:03:42;;;;;;;59.88;28.75;;;;;;;-1.52;91.58;99829.97;1781533;79;21104;-84
2021/01/12 04:06:14;;;;;;;58.75;29.07;;;;;;;-1.53;91.67;99826.16;1796756;79;21120;-78
2021/01/12 04:08:45;;;;;;;70.25;30.30;;;;;;;-1.54;91.74;99829.38;1793493;79;21525;-81
2021/01/12 04:11:18;;;;;;;67.90;33.50;;;;;;;-1.53;91.90;99828.33;1793272;80;21090;-83
2021/01/12 04:13:46;;;;;;;70.17;30.93;;;;;;;-1.55;91.94;99825.56;1793616;80;21387;-84
2021/01/12 04:16:13;;;;;;;64.40;30.48;;;;;;;-1.58;91.93;99825.50;1793171;80;22087;-85
2021/01/12 04:18:42;;;;;;;65.65;29.10;;;;;;;-1.58;92.00;99824.16;1793204;80;21026;-83
2021/01/12 04:21:09;;;;;;;58.45;26.62;;;;;;;-1.57;92.03;99824.98;1793181;80;21173;-83
2021/01/12 04:23:37;;;;;;;59.75;29.25;;;;;;;-1.57;92.13;99823.63;1793275;80;20912;-84
2021/01/12 04:26:04;;;;;;;58.87;27.42;;;;;;;-1.57;92.14;99822.28;1793347;80;22083;-82
2021/01/12 04:28:32;;;;;;;57.30;25.10;;;;;;;-1.57;92.15;99816.38;1793140;80;21167;-84
2021/01/12 04:30:59;;;;;;;58.25;27.13;;;;;;;-1.60;92.19;99808.76;1793165;80;20920;-83
2021/01/12 04:33:28;;;;;;;57.95;27.73;;;;;;;-1.61;92.16;99813.84;1795353;79;21223;-78
2021/01/12 04:35:56;;;;;;;60.05;28.73;;;;;;;-1.63;92.23;99817.81;1796393;79;20912;-79
2021/01/12 04:38:23;;;;;;;71.92;33.35;;;;;;;-1.61;92.41;99818.41;1796016;80;21381;-83
2021/01/12 04:40:52;;;;;;;68.20;33.80;;;;;;;-1.62;92.33;99813.55;1795932;79;21124;-82
2021/01/12 04:43:19;;;;;;;60.23;31.17;;;;;;;-1.62;92.29;99816.77;1796109;80;21012;-80
2021/01/12 04:45:47;;;;;;;72.25;34.13;;;;;;;-1.65;92.27;99812.66;1795992;80;21052;-82
2021/01/12 04:48:14;;;;;;;61.50;29.07;;;;;;;-1.64;92.32;99808.09;1796016;80;21044;-81
2021/01/12 04:50:42;;;;;;;65.10;30.70;;;;;;;-1.63;92.33;99809.22;1796030;80;21400;-79
2021/01/12 04:53:09;;;;;;;54.85;25.65;;;;;;;-1.62;92.28;99812.20;1796065;80;21465;-82
2021/01/12 04:55:41;;;;;;;57.90;25.85;;;;;;;-1.61;92.24;99813.84;1796162;80;21477;-81
2021/01/12 04:58:09;;;;;;;61.35;28.15;;;;;;;-1.62;92.14;99812.20;1796175;80;20961;-83
2021/01/12 05:00:37;;;;;;;56.50;26.65;;;;;;;-1.64;92.07;99818.34;1763324;81;21122;-87
2021/01/12 05:03:07;;;;;;;63.80;27.70;;;;;;;-1.67;92.06;99812.89;1767490;80;22376;-84
2021/01/12 05:05:38;;;;;;;52.25;24.85;;;;;;;-1.67;92.31;99823.66;1796163;80;21056;-83
2021/01/12 05:08:17;;;;;;;62.40;27.75;;;;;;;-1.67;92.17;99820.14;1796024;80;20950;-80
2021/01/12 05:10:51;;;;;;;59.03;26.45;;;;;;;-1.68;92.04;99817.16;1795966;80;21041;-80
2021/01/12 05:13:19;;;;;;;60.90;27.67;;;;;;;-1.65;92.44;99819.39;1796338;79;21477;-82
2021/01/12 05:15:47;;;;;;;56.60;25.65;;;;;;;-1.60;92.37;99821.40;1796022;79;21497;-82
2021/01/12 05:18:17;;;;;;;54.27;27.17;;;;;;;-1.62;92.23;99821.62;1793571;79;20902;-84
2021/01/12 05:20:49;;;;;;;58.68;26.05;;;;;;;-1.63;92.15;99819.16;1796038;80;21049;-84
2021/01/12 05:23:23;;;;;;;56.90;26.75;;;;;;;-1.63;92.16;99819.16;1796164;80;21495;-76
2021/01/12 05:25:52;;;;;;;58.23;26.73;;;;;;;-1.65;92.12;99823.43;1796310;79;21058;-78
2021/01/12 05:28:20;;;;;;;58.63;29.00;;;;;;;-1.65;92.18;99822.08;1796203;79;21597;-82
2021/01/12 05:30:48;;;;;;;56.48;28.92;;;;;;;-1.65;92.08;99830.16;1796190;79;21034;-82
2021/01/12 05:33:20;;;;;;;53.55;25.20;;;;;;;-1.68;92.16;99827.40;1791913;80;21051;-81
2021/01/12 05:35:49;;;;;;;57.30;27.13;;;;;;;-1.63;92.98;99825.37;1779028;80;20922;-80
2021/01/12 05:38:28;;;;;;;59.90;26.97;;;;;;;-1.62;92.63;99825.66;1754139;80;21081;-84
2021/01/12 05:40:57;;;;;;;58.50;27.37;;;;;;;-1.64;92.33;99829.11;1758955;81;21500;-82
2021/01/12 05:43:40;;;;;;;58.42;27.30;;;;;;;-1.67;92.16;99831.73;1790090;80;21504;-82
2021/01/12 05:46:14;;;;;;;63.20;28.83;;;;;;;-1.70;92.21;99830.02;1790227;80;21082;-81
2021/01/12 05:48:48;;;;;;;62.17;29.20;;;;;;;-1.72;92.19;99825.39;1785138;80;21106;-78
2021/01/12 05:51:16;;;;;;;73.20;36.85;;;;;;;-1.72;92.26;99824.05;1785147;80;20914;-73
2021/01/12 05:53:54;;;;;;;66.60;31.73;;;;;;;-1.75;92.17;99826.70;1762602;81;21395;-82
2021/01/12 05:56:23;;;;;;;76.97;36.60;;;;;;;-1.75;92.03;99829.39;1731133;82;21012;-80
2021/01/12 05:58:54;;;;;;;77.00;39.10;;;;;;;-1.75;91.82;99836.13;1780845;80;21014;-87
2021/01/12 06:01:54;;;;;;;72.95;33.65;;;;;;;-1.76;91.66;99834.48;1780917;80;20967;-80
2021/01/12 06:04:23;;;;;;;67.53;28.60;;;;;;;-1.74;90.85;99831.03;1790316;80;21121;-79
2021/01/12 06:06:54;;;;;;;56.20;25.25;;;;;;;-1.77;90.18;99826.63;1788082;80;21377;-79
2021/01/12 06:09:22;;;;;;;54.83;27.42;;;;;;;-1.78;89.69;99827.16;1789979;80;21053;-79
2021/01/12 06:11:56;;;;;;;64.40;32.38;;;;;;;-1.78;89.66;99819.61;1803282;78;21073;-78
2021/01/12 06:14:26;;;;;;;60.88;29.92;;;;;;;-1.78;89.46;99824.99;1811880;79;21085;-79
2021/01/12 06:16:55;;;;;;;59.20;29.27;;;;;;;-1.77;89.16;99810.48;1811832;79;21101;-79
2021/01/12 06:19:25;;;;;;;58.50;27.90;;;;;;;-1.78;88.96;99810.19;1790071;79;21232;-75
2021/01/12 06:22:05;;;;;;;48.38;24.55;;;;;;;-1.80;88.53;99809.08;1790051;80;21524;-79
2021/01/12 06:24:50;;;;;;;55.63;28.02;;;;;;;-1.81;88.46;99810.13;1782981;79;21527;-80
2021/01/12 06:27:20;;;;;;;53.45;26.77;;;;;;;-1.82;88.37;99810.35;1728434;83;21098;-82
2021/01/12 06:29:49;;;;;;;50.98;26.20;;;;;;;-1.82;88.32;99807.66;1758953;81;20963;-82
2021/01/12 06:32:22;;;;;;;52.25;25.55;;;;;;;-1.82;88.25;99819.77;1725333;83;21267;-80
2021/01/12 06:34:51;;;;;;;61.40;26.82;;;;;;;-1.82;88.39;99822.46;1725409;83;20971;-75
2021/01/12 06:37:19;;;;;;;58.63;28.30;;;;;;;-1.80;88.44;99817.15;1725584;83;21475;-71
2021/01/12 06:39:57;;;;;;;59.65;28.42;;;;;;;-1.80;88.35;99817.67;1725437;83;21087;-77
2021/01/12 06:42:29;;;;;;;55.55;27.17;;;;;;;-1.79;88.39;99817.44;1696728;83;21105;-81
2021/01/12 06:44:58;;;;;;;51.68;21.07;;;;;;;-1.79;88.34;99816.63;1725670;83;21161;-89
2021/01/12 06:47:30;;;;;;;46.40;22.77;;;;;;;-1.80;88.42;99810.94;1725486;83;20972;-85
2021/01/12 06:50:13;;;;;;;43.63;19.90;;;;;;;-1.82;87.87;99813.04;1725676;83;20932;-79
2021/01/12 06:52:46;;;;;;;41.18;18.25;;;;;;;-1.87;87.75;99812.91;1725449;83;21574;-82
2021/01/12 06:55:15;;;;;;;43.83;19.12;;;;;;;-1.88;87.47;99813.95;1743872;80;21063;-82
2021/01/12 06:57:46;;;;;;;42.15;19.17;;;;;;;-1.91;87.15;99813.88;1790235;80;21190;-78
2021/01/12 07:00:16;;;;;;;37.48;18.48;;;;;;;-1.94;86.81;99808.95;1785269;80;20986;-81
2021/01/12 07:02:43;;;;;;;47.23;22.10;;;;;;;-1.97;86.34;99806.72;1780815;80;20977;-83
2021/01/12 07:05:15;;;;;;;41.33;18.52;;;;;;;-1.97;86.00;99805.90;1789924;80;21101;-78
2021/01/12 07:07:47;;;;;;;45.30;19.95;;;;;;;-1.98;85.88;99801.05;1760762;80;21073;-79
2021/01/12 07:10:16;;;;;;;38.92;19.07;;;;;;;-2.00;85.71;99803.96;1758954;80;22193;-78
2021/01/12 07:12:44;;;;;;;36.33;18.50;;;;;;;-2.02;84.71;99803.89;1780143;80;21015;-74
2021/01/12 07:15:15;;;;;;;32.17;16.05;;;;;;;-2.07;84.54;99804.58;1783409;80;20982;-77
2021/01/12 07:17:47;;;;;;;32.58;15.43;;;;;;;-2.10;84.82;99796.95;1770437;81;21139;-82
2021/01/12 07:20:19;;;;;;;34.65;17.05;;;;;;;-2.10;84.71;99792.10;1771106;80;21051;-76
2021/01/12 07:23:08;;;;;;;42.00;17.30;;;;;;;-2.09;85.71;99797.78;1758763;80;21227;-74
2021/01/12 07:25:40;;;;;;;33.78;14.40;;;;;;;-2.02;85.58;99796.64;1759981;80;20958;-82
2021/01/12 07:28:25;;;;;;;;;;;;;;;-2.02;85.03;99795.30;1757363;81;21512;-74
2021/01/12 07:30:57;;;;;;;36.35;16.37;;;;;;;-2.04;84.46;99790.67;1771209;81;20774;-78
2021/01/12 07:33:28;;;;;;;36.63;16.50;;;;;;;-2.09;84.52;99787.84;1742003;81;21155;-80
2021/01/12 07:35:58;;;;;;;37.30;18.37;;;;;;;-2.13;84.60;99788.00;1771355;81;21479;-81
2021/01/12 07:38:28;;;;;;;33.48;15.55;;;;;;;-2.14;84.97;99783.66;1771200;81;20953;-80
2021/01/12 07:41:00;;;;;;;37.05;17.25;;;;;;;-2.13;84.99;99781.80;1771275;81;20949;-74
2021/01/12 07:43:29;;;;;;;37.65;17.40;;;;;;;-2.13;85.23;99778.58;1770269;80;21041;-80
2021/01/12 07:45:58;;;;;;;37.03;16.93;;;;;;;-2.08;85.00;99781.94;1763933;80;21084;-79
2021/01/12 07:48:26;;;;;;;41.02;19.02;;;;;;;-2.07;85.05;99785.74;1770716;81;21520;-70
2021/01/12 07:50:53;;;;;;;46.15;20.57;;;;;;;-2.03;85.90;99780.73;1770434;81;21124;-78
2021/01/12 07:53:21;;;;;;;37.35;18.25;;;;;;;-1.96;85.53;99786.02;1770663;80;21025;-74
2021/01/12 07:55:49;;;;;;;40.23;16.10;;;;;;;-1.95;85.11;99784.45;1770742;81;21508;-70
2021/01/12 07:58:18;;;;;;;46.20;23.07;;;;;;;-1.93;84.94;99786.38;1740931;81;20953;-71
2021/01/12 08:00:50;;;;;;;39.03;17.98;;;;;;;-1.95;84.65;99784.45;1771169;81;21209;-72
2021/01/12 08:03:19;;;;;;;32.93;13.90;;;;;;;-1.98;84.06;99778.17;1767235;81;21079;-74
2021/01/12 08:05:47;;;;;;;40.98;16.75;;;;;;;-2.02;83.60;99782.37;1740884;81;21207;-75
2021/01/12 08:08:15;;;;;;;38.33;17.52;;;;;;;-2.08;83.81;99777.38;1770474;81;21043;-84
2021/01/12 08:10:43;;;;;;;40.78;17.90;;;;;;;-2.09;83.93;99783.80;1768954;80;21104;-78
2021/01/12 08:13:13;;;;;;;31.60;14.80;;;;;;;-2.10;84.28;99779.47;1770588;80;21607;-74
2021/01/12 08:15:47;;;;;;;39.58;16.62;;;;;;;-2.07;84.03;99776.33;1770546;81;21001;-74
2021/01/12 08:18:17;;;;;;;34.48;13.70;;;;;;;-2.10;83.47;99772.75;1762806;80;21017;-76
2021/01/12 08:20:45;;;;;;;36.23;16.02;;;;;;;-2.11;83.23;99772.97;1770200;80;21091;-73
2021/01/12 08:23:18;;;;;;;30.57;14.75;;;;;;;-2.11;83.54;99776.48;1770820;80;21175;-72
2021/01/12 08:25:46;;;;;;;34.45;15.72;;;;;;;-2.13;82.82;99772.37;1770859;80;21207;-73
2021/01/12 08:28:13;;;;;;;41.63;19.17;;;;;;;-2.15;82.94;99776.64;1770844;80;21123;-72
2021/01/12 08:30:41;;;;;;;33.28;14.70;;;;;;;-2.14;83.34;99774.25;1770691;80;21122;-80
2021/01/12 08:33:25;;;;;;;47.20;20.70;;;;;;;-2.10;83.29;99777.30;1769598;81;21127;-73
2021/01/12 08:35:59;;;;;;;52.88;22.62;;;;;;;-2.09;82.82;99779.77;1758962;81;20993;-73
2021/01/12 08:38:27;;;;;;;44.50;21.15;;;;;;;-2.08;82.73;99782.75;1734595;81;21311;-73
2021/01/12 08:40:54;;;;;;;47.40;19.90;;;;;;;-2.08;82.98;99773.34;1758770;81;21594;-72
2021/01/12 08:43:30;;;;;;;34.53;16.50;;;;;;;-2.07;83.20;99775.51;1758929;81;21064;-73
2021/01/12 08:46:02;;;;;;;35.58;16.25;;;;;;;-2.07;83.17;99776.33;1758894;81;21018;-73
2021/01/12 08:48:30;;;;;;;37.63;17.67;;;;;;;-2.05;83.06;99769.38;1759101;81;21040;-71
2021/01/12 08:50:58;;;;;;;35.30;16.80;;;;;;;-2.05;82.97;99770.19;1758864;81;21277;-72
2021/01/12 08:53:31;;;;;;;42.93;19.45;;;;;;;-2.06;83.15;99775.80;1752664;81;21079;-71
2021/01/12 08:56:08;;;;;;;34.20;16.62;;;;;;;-2.08;83.19;99763.11;1743257;82;21168;-78
2021/01/12 08:58:36;;;;;;;44.15;19.65;;;;;;;-2.09;83.16;99767.66;1743096;82;21074;-73
2021/01/12 09:01:04;;;;;;;39.20;18.48;;;;;;;-2.07;83.59;99769.60;1743132;82;21030;-83
2021/01/12 09:03:33;;;;;;;33.20;16.40;;;;;;;-2.04;83.62;99759.73;1743631;81;21155;-78
2021/01/12 09:06:01;;;;;;;35.92;17.00;;;;;;;-2.04;83.29;99754.88;1754639;81;21016;-73
2021/01/12 09:08:28;;;;;;;45.10;21.25;;;;;;;-2.06;83.31;99749.72;1740383;82;21167;-77
2021/01/12 09:11:00;;;;;;;45.33;22.15;;;;;;;-2.08;83.57;99751.82;1740331;82;21045;-73
2021/01/12 09:13:28;;;;;;;73.42;35.95;;;;;;;-2.12;83.54;99752.50;1721479;82;21080;-76
2021/01/12 09:15:56;;;;;;;74.10;37.17;;;;;;;-2.15;83.74;99752.44;1740086;82;21325;-76
2021/01/12 09:18:24;;;;;;;60.05;28.67;;;;;;;-2.15;84.06;99742.20;1740037;82;21135;-72
2021/01/12 09:21:07;;;;;;;53.00;21.68;;;;;;;-2.07;84.47;99732.47;1880607;76;22795;-80
2021/01/12 09:23:36;;;;;;;45.55;22.15;;;;;;;-2.07;84.77;99734.63;1842229;77;21579;-73
2021/01/12 09:26:05;;;;;;;45.05;21.17;;;;;;;-2.01;84.78;99735.06;1848874;77;22187;-73
2021/01/12 09:28:38;;;;;;;40.45;19.42;;;;;;;-1.96;84.52;99728.99;1819670;77;21652;-75
2021/01/12 09:31:17;;;;;;;43.33;21.00;;;;;;;-1.95;84.35;99724.43;1812518;78;20986;-73
2021/01/12 09:33:51;;;;;;;40.28;18.90;;;;;;;-1.94;84.24;99716.12;1816326;77;21575;-73
2021/01/12 09:36:20;;;;;;;38.50;18.20;;;;;;;-1.92;84.04;99711.34;1817389;77;21590;-74
2021/01/12 09:38:52;;;;;;;33.23;15.03;;;;;;;-1.90;82.79;99707.89;1816930;78;21361;-73
2021/01/12 09:41:25;;;;;;;36.38;16.57;;;;;;;-1.93;82.39;99698.94;1795162;77;20986;-74
2021/01/12 09:43:55;;;;;;;53.92;20.50;;;;;;;-1.95;82.21;99688.11;1811741;77;21034;-78
2021/01/12 09:46:23;;;;;;;46.08;19.57;;;;;;;-1.99;82.14;99687.75;1811145;77;21068;-82
2021/01/12 09:48:51;;;;;;;35.17;17.10;;;;;;;-1.99;82.23;99685.06;1815213;78;21619;-76
2021/01/12 09:51:19;;;;;;;37.35;16.57;;;;;;;-1.96;82.75;99680.56;1810611;78;21155;-76
2021/01/12 09:53:48;;;;;;;31.02;14.28;;;;;;;-1.86;82.64;99676.78;1810577;78;21547;-76
2021/01/12 09:56:18;;;;;;;31.00;13.72;;;;;;;-1.81;81.17;99665.33;1816306;79;21119;-75
2021/01/12 09:58:45;;;;;;;28.77;14.00;;;;;;;-1.80;80.47;99657.02;1816306;77;20990;-77
2021/01/12 10:01:13;;;;;;;26.17;13.13;;;;;;;-1.78;81.00;99651.41;1815678;78;21480;-73
2021/01/12 10:03:43;;;;;;;34.88;14.68;;;;;;;-1.72;80.90;99642.37;1821562;78;22265;-75
2021/01/12 10:06:19;;;;;;;28.60;12.30;;;;;;;-1.65;80.84;99641.73;1821699;78;21060;-74
2021/01/12 10:08:46;;;;;;;23.47;11.68;;;;;;;-1.62;79.33;99629.15;1821701;77;20942;-75
2021/01/12 10:11:14;;;;;;;22.42;10.48;;;;;;;-1.63;79.32;99624.00;1821160;77;21143;-72
2021/01/12 10:13:46;;;;;;;27.62;13.60;;;;;;;-1.64;79.14;99619.66;1818755;77;21837;-73
2021/01/12 10:16:22;;;;;;;36.35;15.35;;;;;;;-1.65;79.19;99614.81;1816245;78;21322;-77
2021/01/12 10:18:50;;;;;;;30.00;12.40;;;;;;;-1.67;79.36;99608.84;1816229;79;20938;-77
2021/01/12 10:21:18;;;;;;;28.60;12.60;;;;;;;-1.70;78.99;99607.96;1816574;77;20998;-76
2021/01/12 10:23:48;;;;;;;24.70;12.37;;;;;;;-1.72;78.92;99601.47;1794178;79;21563;-74
2021/01/12 10:26:17;;;;;;;22.98;10.90;;;;;;;-1.73;78.89;99599.83;1815873;79;20974;-72
2021/01/12 10:28:47;;;;;;;28.77;11.88;;;;;;;-1.71;77.76;99595.56;1795806;78;21409;-74
2021/01/12 10:31:18;;;;;;;21.82;8.98;;;;;;;-1.71;77.38;99594.22;1795458;79;21024;-75
2021/01/12 10:33:46;;;;;;;18.73;9.75;;;;;;;-1.74;76.56;99592.84;1784973;79;21041;-78
2021/01/12 10:36:21;;;;;;;20.40;9.45;;;;;;;-1.76;76.91;99588.74;1813677;77;21602;-75
2021/01/12 10:38:49;;;;;;;23.98;10.58;;;;;;;-1.76;76.94;99582.02;1807068;78;21088;-72
2021/01/12 10:41:16;;;;;;;23.57;10.68;;;;;;;-1.74;77.01;99583.95;1790999;79;21346;-76
2021/01/12 10:43:44;;;;;;;21.95;10.88;;;;;;;-1.74;76.89;99586.64;1782682;80;21373;-73
2021/01/12 10:46:16;;;;;;;22.95;11.38;;;;;;;-1.75;77.22;99585.00;1788885;78;20981;-71
2021/01/12 10:48:44;;;;;;;25.55;10.85;;;;;;;-1.73;77.67;99585.03;1810200;78;21144;-72
2021/01/12 10:51:12;;;;;;;23.80;11.05;;;;;;;-1.71;77.96;99590.17;1741303;81;21179;-75
2021/01/12 10:53:41;;;;;;;21.60;11.25;;;;;;;-1.72;77.62;99583.97;1812479;77;21183;-72
2021/01/12 10:56:16;;;;;;;21.95;11.18;;;;;;;-1.72;77.39;99593.92;1810872;78;21108;-73
2021/01/12 10:58:43;;;;;;;22.87;11.08;;;;;;;-1.76;76.91;99584.70;1786859;79;21045;-73
2021/01/12 11:01:16;;;;;;;27.70;12.60;;;;;;;-1.76;77.53;99582.84;1811800;79;21025;-75
2021/01/12 11:03:45;;;;;;;25.48;12.20;;;;;;;-1.73;77.46;99582.86;1810480;79;21169;-75
2021/01/12 11:06:17;;;;;;;24.18;11.90;;;;;;;-1.70;77.53;99577.02;1805035;79;21823;-77
2021/01/12 11:08:44;;;;;;;26.48;11.57;;;;;;;-1.71;77.75;99587.48;1805044;79;21575;-75
2021/01/12 11:11:20;;;;;;;26.77;12.93;;;;;;;-1.72;77.43;99580.47;1799281;79;20930;-71
2021/01/12 11:13:49;;;;;;;25.72;12.07;;;;;;;-1.74;77.67;99581.26;1798986;79;20994;-73
2021/01/12 11:16:17;;;;;;;29.05;12.58;;;;;;;-1.75;77.53;99576.92;1804994;79;21140;-71
2021/01/12 11:18:46;;;;;;;23.05;11.40;;;;;;;-1.79;77.12;99573.88;1810010;77;21411;-80
2021/01/12 11:21:15;;;;;;;26.50;12.10;;;;;;;-1.82;76.99;99573.53;1809552;78;21602;-77
2021/01/12 11:23:44;;;;;;;22.95;10.05;;;;;;;-1.84;77.28;99569.73;1810637;78;21121;-77
2021/01/12 11:26:12;;;;;;;20.65;10.38;;;;;;;-1.86;76.60;99557.04;1810821;79;20938;-75
2021/01/12 11:28:40;;;;;;;23.57;11.15;;;;;;;-1.88;75.96;99547.56;1791577;79;21707;-74